sensor_id;sensor_type;location;lat;lon;timestamp;temperature;humidity
48575;DHT22;34352;51.084;3.712;2023-05-16T00:01:10;7.40;64.30
48575;DHT22;34352;51.084;3.712;2023-05-16T00:03:37;7.60;65.20
48575;DHT22;34352;51.084;3.712;2023-05-16T00:06:03;7.60;65.80
48575;DHT22;34352;51.084;3.712;2023-05-16T00:08:34;7.60;67.00
48575;DHT22;34352;51.084;3.712;2023-05-16T00:11:00;7.20;68.20
48575;DHT22;34352;51.084;3.712;2023-05-16T00:13:28;7.40;67.80
48575;DHT22;34352;51.084;3.712;2023-05-16T00:16:08;7.40;67.20
48575;DHT22;34352;51.084;3.712;2023-05-16T00:18:35;6.60;71.50
48575;DHT22;34352;51.084;3.712;2023-05-16T00:21:04;7.30;68.40
48575;DHT22;34352;51.084;3.712;2023-05-16T00:23:31;7.40;70.10
48575;DHT22;34352;51.084;3.712;2023-05-16T00:25:58;7.40;67.60
48575;DHT22;34352;51.084;3.712;2023-05-16T00:28:24;7.30;67.70
48575;DHT22;34352;51.084;3.712;2023-05-16T00:30:51;6.30;67.10
48575;DHT22;34352;51.084;3.712;2023-05-16T00:33:19;7.30;67.80
48575;DHT22;34352;51.084;3.712;2023-05-16T00:35:46;7.30;68.20
48575;DHT22;34352;51.084;3.712;2023-05-16T00:38:13;7.40;67.90
48575;DHT22;34352;51.084;3.712;2023-05-16T00:41:06;7.40;67.20
48575;DHT22;34352;51.084;3.712;2023-05-16T00:43:32;7.40;70.90
48575;DHT22;34352;51.084;3.712;2023-05-16T00:46:01;7.30;69.80
48575;DHT22;34352;51.084;3.712;2023-05-16T00:48:28;7.20;70.80
48575;DHT22;34352;51.084;3.712;2023-05-16T00:50:55;7.10;69.80
48575;DHT22;34352;51.084;3.712;2023-05-16T00:53:23;7.50;71.40
48575;DHT22;34352;51.084;3.712;2023-05-16T00:55:55;7.30;73.10
48575;DHT22;34352;51.084;3.712;2023-05-16T00:58:23;8.10;70.70
48575;DHT22;34352;51.084;3.712;2023-05-16T01:00:51;8.40;72.00
48575;DHT22;34352;51.084;3.712;2023-05-16T01:03:28;7.10;72.60
48575;DHT22;34352;51.084;3.712;2023-05-16T01:05:54;7.00;72.30
48575;DHT22;34352;51.084;3.712;2023-05-16T01:08:24;7.10;71.60
48575;DHT22;34352;51.084;3.712;2023-05-16T01:11:03;7.90;75.00
48575;DHT22;34352;51.084;3.712;2023-05-16T01:26:45;7.30;75.90
48575;DHT22;34352;51.084;3.712;2023-05-16T01:29:13;6.90;76.00
48575;DHT22;34352;51.084;3.712;2023-05-16T01:31:41;6.90;75.60
48575;DHT22;34352;51.084;3.712;2023-05-16T01:34:06;7.00;75.40
48575;DHT22;34352;51.084;3.712;2023-05-16T01:37:14;6.90;74.80
48575;DHT22;34352;51.084;3.712;2023-05-16T01:42:20;6.90;76.10
48575;DHT22;34352;51.084;3.712;2023-05-16T01:45:11;6.90;76.00
48575;DHT22;34352;51.084;3.712;2023-05-16T01:47:44;6.90;76.80
48575;DHT22;34352;51.084;3.712;2023-05-16T01:50:16;7.30;77.80
48575;DHT22;34352;51.084;3.712;2023-05-16T01:53:03;6.90;77.50
48575;DHT22;34352;51.084;3.712;2023-05-16T01:55:50;6.90;77.60
48575;DHT22;34352;51.084;3.712;2023-05-16T01:58:21;6.90;77.20
48575;DHT22;34352;51.084;3.712;2023-05-16T02:00:48;6.90;77.20
48575;DHT22;34352;51.084;3.712;2023-05-16T02:03:14;6.80;76.20
48575;DHT22;34352;51.084;3.712;2023-05-16T02:05:40;7.80;75.10
48575;DHT22;34352;51.084;3.712;2023-05-16T02:08:10;6.80;74.30
48575;DHT22;34352;51.084;3.712;2023-05-16T02:10:40;6.60;76.40
48575;DHT22;34352;51.084;3.712;2023-05-16T02:13:06;7.80;75.50
48575;DHT22;34352;51.084;3.712;2023-05-16T02:15:37;6.80;75.30
48575;DHT22;34352;51.084;3.712;2023-05-16T02:18:05;6.70;75.60
48575;DHT22;34352;51.084;3.712;2023-05-16T02:20:30;8.30;75.60
48575;DHT22;34352;51.084;3.712;2023-05-16T02:22:56;6.60;74.90
48575;DHT22;34352;51.084;3.712;2023-05-16T02:25:25;6.70;74.70
48575;DHT22;34352;51.084;3.712;2023-05-16T02:27:52;7.40;75.00
48575;DHT22;34352;51.084;3.712;2023-05-16T02:30:20;6.70;74.40
48575;DHT22;34352;51.084;3.712;2023-05-16T02:32:45;6.60;74.90
48575;DHT22;34352;51.084;3.712;2023-05-16T02:35:13;7.40;75.90
48575;DHT22;34352;51.084;3.712;2023-05-16T02:37:41;8.10;76.40
48575;DHT22;34352;51.084;3.712;2023-05-16T02:40:07;6.50;75.70
48575;DHT22;34352;51.084;3.712;2023-05-16T02:42:33;5.70;75.80
48575;DHT22;34352;51.084;3.712;2023-05-16T02:44:59;6.40;73.90
48575;DHT22;34352;51.084;3.712;2023-05-16T02:47:25;6.60;75.00
48575;DHT22;34352;51.084;3.712;2023-05-16T02:49:51;7.80;73.80
48575;DHT22;34352;51.084;3.712;2023-05-16T02:52:19;6.90;75.20
48575;DHT22;34352;51.084;3.712;2023-05-16T02:54:46;6.50;77.60
48575;DHT22;34352;51.084;3.712;2023-05-16T02:57:14;6.30;76.00
48575;DHT22;34352;51.084;3.712;2023-05-16T02:59:40;6.50;74.70
48575;DHT22;34352;51.084;3.712;2023-05-16T03:02:08;6.80;75.70
48575;DHT22;34352;51.084;3.712;2023-05-16T03:04:34;6.90;75.60
48575;DHT22;34352;51.084;3.712;2023-05-16T03:07:01;5.90;73.80
48575;DHT22;34352;51.084;3.712;2023-05-16T03:09:31;6.40;74.60
48575;DHT22;34352;51.084;3.712;2023-05-16T03:11:57;6.30;75.70
48575;DHT22;34352;51.084;3.712;2023-05-16T03:14:24;7.20;76.40
48575;DHT22;34352;51.084;3.712;2023-05-16T03:16:52;7.70;76.40
48575;DHT22;34352;51.084;3.712;2023-05-16T03:19:18;6.70;76.40
48575;DHT22;34352;51.084;3.712;2023-05-16T03:21:52;6.30;76.90
48575;DHT22;34352;51.084;3.712;2023-05-16T03:24:21;6.30;78.00
48575;DHT22;34352;51.084;3.712;2023-05-16T03:26:47;6.30;78.10
48575;DHT22;34352;51.084;3.712;2023-05-16T03:29:17;6.30;77.10
48575;DHT22;34352;51.084;3.712;2023-05-16T03:31:42;6.30;79.20
48575;DHT22;34352;51.084;3.712;2023-05-16T03:34:08;7.10;77.50
48575;DHT22;34352;51.084;3.712;2023-05-16T03:36:35;6.50;78.10
48575;DHT22;34352;51.084;3.712;2023-05-16T03:39:08;7.00;76.90
48575;DHT22;34352;51.084;3.712;2023-05-16T03:41:38;6.50;76.80
48575;DHT22;34352;51.084;3.712;2023-05-16T03:44:04;5.20;75.80
48575;DHT22;34352;51.084;3.712;2023-05-16T03:46:32;6.40;76.60
48575;DHT22;34352;51.084;3.712;2023-05-16T03:48:59;6.40;76.70
48575;DHT22;34352;51.084;3.712;2023-05-16T03:51:27;7.20;76.10
48575;DHT22;34352;51.084;3.712;2023-05-16T03:53:57;7.50;76.90
48575;DHT22;34352;51.084;3.712;2023-05-16T03:56:22;6.40;76.10
48575;DHT22;34352;51.084;3.712;2023-05-16T03:58:50;7.90;77.50
48575;DHT22;34352;51.084;3.712;2023-05-16T04:01:17;6.50;77.30
48575;DHT22;34352;51.084;3.712;2023-05-16T04:03:47;6.40;76.30
48575;DHT22;34352;51.084;3.712;2023-05-16T04:06:13;6.50;78.20
48575;DHT22;34352;51.084;3.712;2023-05-16T04:08:42;8.20;76.90
48575;DHT22;34352;51.084;3.712;2023-05-16T04:11:09;5.50;76.00
48575;DHT22;34352;51.084;3.712;2023-05-16T04:13:36;7.70;78.30
48575;DHT22;34352;51.084;3.712;2023-05-16T04:16:06;6.50;77.00
48575;DHT22;34352;51.084;3.712;2023-05-16T04:18:33;6.50;78.30
48575;DHT22;34352;51.084;3.712;2023-05-16T04:21:01;5.60;77.40
48575;DHT22;34352;51.084;3.712;2023-05-16T04:23:28;6.60;77.60
48575;DHT22;34352;51.084;3.712;2023-05-16T04:25:54;6.60;77.30
48575;DHT22;34352;51.084;3.712;2023-05-16T04:28:21;6.70;78.00
48575;DHT22;34352;51.084;3.712;2023-05-16T04:30:50;8.00;78.80
48575;DHT22;34352;51.084;3.712;2023-05-16T04:33:16;7.90;79.10
48575;DHT22;34352;51.084;3.712;2023-05-16T04:35:46;6.80;79.40
48575;DHT22;34352;51.084;3.712;2023-05-16T04:38:19;7.00;79.20
48575;DHT22;34352;51.084;3.712;2023-05-16T04:40:46;7.70;82.10
48575;DHT22;34352;51.084;3.712;2023-05-16T04:43:18;8.20;83.80
48575;DHT22;34352;51.084;3.712;2023-05-16T04:45:44;7.30;81.90
48575;DHT22;34352;51.084;3.712;2023-05-16T04:48:10;7.20;78.10
48575;DHT22;34352;51.084;3.712;2023-05-16T04:50:37;7.30;80.10
48575;DHT22;34352;51.084;3.712;2023-05-16T04:53:04;8.20;79.40
48575;DHT22;34352;51.084;3.712;2023-05-16T04:55:32;7.30;79.50
48575;DHT22;34352;51.084;3.712;2023-05-16T04:58:00;8.10;81.10
48575;DHT22;34352;51.084;3.712;2023-05-16T05:00:28;7.40;83.50
48575;DHT22;34352;51.084;3.712;2023-05-16T05:03:00;7.60;80.10
48575;DHT22;34352;51.084;3.712;2023-05-16T05:05:27;7.70;80.30
48575;DHT22;34352;51.084;3.712;2023-05-16T05:07:54;7.90;81.20
48575;DHT22;34352;51.084;3.712;2023-05-16T05:10:19;8.00;82.20
48575;DHT22;34352;51.084;3.712;2023-05-16T05:12:48;8.20;81.20
48575;DHT22;34352;51.084;3.712;2023-05-16T05:15:16;9.60;82.60
48575;DHT22;34352;51.084;3.712;2023-05-16T05:17:44;8.40;79.00
48575;DHT22;34352;51.084;3.712;2023-05-16T05:20:10;8.50;77.80
48575;DHT22;34352;51.084;3.712;2023-05-16T05:22:36;7.70;80.10
48575;DHT22;34352;51.084;3.712;2023-05-16T05:25:08;8.90;78.60
48575;DHT22;34352;51.084;3.712;2023-05-16T05:27:41;9.20;75.20
48575;DHT22;34352;51.084;3.712;2023-05-16T05:30:12;9.70;79.70
48575;DHT22;34352;51.084;3.712;2023-05-16T05:32:59;9.60;77.20
48575;DHT22;34352;51.084;3.712;2023-05-16T05:35:34;10.30;72.90
48575;DHT22;34352;51.084;3.712;2023-05-16T05:38:05;10.90;55.80
48575;DHT22;34352;51.084;3.712;2023-05-16T05:40:40;10.90;42.10
48575;DHT22;34352;51.084;3.712;2023-05-16T05:43:32;11.00;40.60
48575;DHT22;34352;51.084;3.712;2023-05-16T05:46:09;10.90;42.60
48575;DHT22;34352;51.084;3.712;2023-05-16T05:51:13;11.80;2.50
48575;DHT22;34352;51.084;3.712;2023-05-16T05:53:40;12.30;7.30
48575;DHT22;34352;51.084;3.712;2023-05-16T05:56:08;12.60;1.00
48575;DHT22;34352;51.084;3.712;2023-05-16T05:58:36;13.10;1.00
48575;DHT22;34352;51.084;3.712;2023-05-16T06:01:13;13.70;1.00
48575;DHT22;34352;51.084;3.712;2023-05-16T06:03:44;13.80;99.90
48575;DHT22;34352;51.084;3.712;2023-05-16T06:06:10;14.80;99.90
48575;DHT22;34352;51.084;3.712;2023-05-16T06:08:40;14.90;99.90
48575;DHT22;34352;51.084;3.712;2023-05-16T06:11:06;15.10;99.90
48575;DHT22;34352;51.084;3.712;2023-05-16T06:13:35;15.30;99.90
48575;DHT22;34352;51.084;3.712;2023-05-16T06:16:15;15.90;99.90
48575;DHT22;34352;51.084;3.712;2023-05-16T06:18:43;16.30;99.90
48575;DHT22;34352;51.084;3.712;2023-05-16T06:21:27;17.10;99.90
48575;DHT22;34352;51.084;3.712;2023-05-16T06:23:55;17.80;99.90
48575;DHT22;34352;51.084;3.712;2023-05-16T06:26:25;18.30;99.90
48575;DHT22;34352;51.084;3.712;2023-05-16T06:28:59;17.80;99.90
48575;DHT22;34352;51.084;3.712;2023-05-16T06:31:27;17.40;99.90
48575;DHT22;34352;51.084;3.712;2023-05-16T06:34:37;16.50;99.90
48575;DHT22;34352;51.084;3.712;2023-05-16T06:45:33;16.10;99.90
48575;DHT22;34352;51.084;3.712;2023-05-16T06:50:49;17.20;99.90
48575;DHT22;34352;51.084;3.712;2023-05-16T06:53:18;17.70;99.90
48575;DHT22;34352;51.084;3.712;2023-05-16T06:55:44;18.50;99.90
48575;DHT22;34352;51.084;3.712;2023-05-16T06:58:10;19.50;99.90
48575;DHT22;34352;51.084;3.712;2023-05-16T07:00:35;20.20;99.90
48575;DHT22;34352;51.084;3.712;2023-05-16T07:03:01;20.90;99.90
48575;DHT22;34352;51.084;3.712;2023-05-16T07:05:28;21.30;99.90
48575;DHT22;34352;51.084;3.712;2023-05-16T07:07:54;20.90;99.90
48575;DHT22;34352;51.084;3.712;2023-05-16T07:10:21;20.50;99.90
48575;DHT22;34352;51.084;3.712;2023-05-16T07:12:48;20.80;99.90
48575;DHT22;34352;51.084;3.712;2023-05-16T07:15:14;20.60;99.90
48575;DHT22;34352;51.084;3.712;2023-05-16T07:17:40;20.70;99.90
48575;DHT22;34352;51.084;3.712;2023-05-16T07:20:06;21.10;99.90
48575;DHT22;34352;51.084;3.712;2023-05-16T07:22:34;21.50;99.90
48575;DHT22;34352;51.084;3.712;2023-05-16T07:25:00;20.60;99.90
48575;DHT22;34352;51.084;3.712;2023-05-16T07:27:26;19.70;99.90
48575;DHT22;34352;51.084;3.712;2023-05-16T07:29:53;18.50;99.90
48575;DHT22;34352;51.084;3.712;2023-05-16T07:32:19;17.60;99.90
48575;DHT22;34352;51.084;3.712;2023-05-16T07:34:46;17.20;99.90
48575;DHT22;34352;51.084;3.712;2023-05-16T07:37:13;17.80;99.90
48575;DHT22;34352;51.084;3.712;2023-05-16T07:39:40;19.30;99.90
48575;DHT22;34352;51.084;3.712;2023-05-16T07:42:07;19.90;99.90
48575;DHT22;34352;51.084;3.712;2023-05-16T07:44:32;20.60;99.90
48575;DHT22;34352;51.084;3.712;2023-05-16T07:46:58;21.40;99.90
48575;DHT22;34352;51.084;3.712;2023-05-16T07:49:24;21.60;99.90
48575;DHT22;34352;51.084;3.712;2023-05-16T07:51:50;22.00;99.90
48575;DHT22;34352;51.084;3.712;2023-05-16T07:54:16;22.40;99.90
48575;DHT22;34352;51.084;3.712;2023-05-16T07:56:42;22.30;99.90
48575;DHT22;34352;51.084;3.712;2023-05-16T07:59:07;22.30;99.90
48575;DHT22;34352;51.084;3.712;2023-05-16T08:01:33;22.40;99.90
48575;DHT22;34352;51.084;3.712;2023-05-16T08:03:59;22.90;99.90
48575;DHT22;34352;51.084;3.712;2023-05-16T08:06:24;23.70;99.90
48575;DHT22;34352;51.084;3.712;2023-05-16T08:08:50;23.70;99.90
48575;DHT22;34352;51.084;3.712;2023-05-16T08:11:17;22.70;99.90
48575;DHT22;34352;51.084;3.712;2023-05-16T08:13:43;21.40;99.90
48575;DHT22;34352;51.084;3.712;2023-05-16T08:16:09;20.70;99.90
48575;DHT22;34352;51.084;3.712;2023-05-16T08:18:36;19.90;99.90
48575;DHT22;34352;51.084;3.712;2023-05-16T08:21:01;19.30;99.90
48575;DHT22;34352;51.084;3.712;2023-05-16T08:23:27;20.30;99.90
48575;DHT22;34352;51.084;3.712;2023-05-16T08:25:53;20.90;99.90
48575;DHT22;34352;51.084;3.712;2023-05-16T08:28:19;21.80;99.90
48575;DHT22;34352;51.084;3.712;2023-05-16T08:30:44;22.80;99.90
48575;DHT22;34352;51.084;3.712;2023-05-16T08:33:10;23.80;99.90
48575;DHT22;34352;51.084;3.712;2023-05-16T08:35:36;24.30;99.90
48575;DHT22;34352;51.084;3.712;2023-05-16T08:38:01;25.00;99.90
48575;DHT22;34352;51.084;3.712;2023-05-16T08:40:28;24.90;99.90
48575;DHT22;34352;51.084;3.712;2023-05-16T08:42:54;25.30;99.90
48575;DHT22;34352;51.084;3.712;2023-05-16T08:45:21;25.50;99.90
48575;DHT22;34352;51.084;3.712;2023-05-16T08:47:49;25.50;99.90
48575;DHT22;34352;51.084;3.712;2023-05-16T08:50:15;24.50;99.90
48575;DHT22;34352;51.084;3.712;2023-05-16T08:52:42;24.60;99.90
48575;DHT22;34352;51.084;3.712;2023-05-16T08:55:08;24.20;99.90
48575;DHT22;34352;51.084;3.712;2023-05-16T08:57:37;23.30;99.90
48575;DHT22;34352;51.084;3.712;2023-05-16T09:00:06;22.20;99.90
48575;DHT22;34352;51.084;3.712;2023-05-16T09:02:40;21.10;99.90
48575;DHT22;34352;51.084;3.712;2023-05-16T09:05:08;20.30;99.90
48575;DHT22;34352;51.084;3.712;2023-05-16T09:07:35;20.90;99.90
48575;DHT22;34352;51.084;3.712;2023-05-16T09:10:01;20.70;99.90
48575;DHT22;34352;51.084;3.712;2023-05-16T09:12:26;20.30;99.90
48575;DHT22;34352;51.084;3.712;2023-05-16T09:14:53;20.10;99.90
48575;DHT22;34352;51.084;3.712;2023-05-16T09:17:21;20.70;99.90
48575;DHT22;34352;51.084;3.712;2023-05-16T09:19:46;20.70;99.90
48575;DHT22;34352;51.084;3.712;2023-05-16T09:22:18;21.70;99.90
48575;DHT22;34352;51.084;3.712;2023-05-16T09:24:45;22.90;99.90
48575;DHT22;34352;51.084;3.712;2023-05-16T09:27:14;24.20;99.90
48575;DHT22;34352;51.084;3.712;2023-05-16T09:29:43;24.90;99.90
48575;DHT22;34352;51.084;3.712;2023-05-16T09:32:12;25.50;99.90
48575;DHT22;34352;51.084;3.712;2023-05-16T09:34:48;25.70;99.90
48575;DHT22;34352;51.084;3.712;2023-05-16T09:37:44;26.20;99.90
48575;DHT22;34352;51.084;3.712;2023-05-16T09:40:11;26.50;99.90
48575;DHT22;34352;51.084;3.712;2023-05-16T09:42:37;26.40;99.90
48575;DHT22;34352;51.084;3.712;2023-05-16T09:45:04;26.40;99.90
48575;DHT22;34352;51.084;3.712;2023-05-16T09:47:32;27.20;99.90
48575;DHT22;34352;51.084;3.712;2023-05-16T09:49:59;27.10;99.90
48575;DHT22;34352;51.084;3.712;2023-05-16T09:52:28;26.60;99.90
48575;DHT22;34352;51.084;3.712;2023-05-16T09:54:56;26.00;99.90
48575;DHT22;34352;51.084;3.712;2023-05-16T09:57:23;26.30;99.90
48575;DHT22;34352;51.084;3.712;2023-05-16T09:59:52;25.80;99.90
48575;DHT22;34352;51.084;3.712;2023-05-16T10:02:18;24.90;99.90
48575;DHT22;34352;51.084;3.712;2023-05-16T10:04:44;25.50;99.90
48575;DHT22;34352;51.084;3.712;2023-05-16T10:07:10;26.30;99.90
48575;DHT22;34352;51.084;3.712;2023-05-16T10:09:38;27.00;99.90
48575;DHT22;34352;51.084;3.712;2023-05-16T10:12:07;27.10;99.90
48575;DHT22;34352;51.084;3.712;2023-05-16T10:14:36;26.70;99.90
48575;DHT22;34352;51.084;3.712;2023-05-16T10:17:07;26.10;99.90
48575;DHT22;34352;51.084;3.712;2023-05-16T10:19:37;26.50;99.90
48575;DHT22;34352;51.084;3.712;2023-05-16T10:22:05;26.90;99.90
48575;DHT22;34352;51.084;3.712;2023-05-16T10:24:47;27.40;99.90
48575;DHT22;34352;51.084;3.712;2023-05-16T10:27:14;27.50;99.90
48575;DHT22;34352;51.084;3.712;2023-05-16T10:29:47;27.40;99.90
48575;DHT22;34352;51.084;3.712;2023-05-16T10:32:19;28.00;99.90
48575;DHT22;34352;51.084;3.712;2023-05-16T10:34:47;27.80;99.90
48575;DHT22;34352;51.084;3.712;2023-05-16T10:37:15;27.90;99.90
48575;DHT22;34352;51.084;3.712;2023-05-16T10:39:49;28.00;99.90
48575;DHT22;34352;51.084;3.712;2023-05-16T10:42:33;27.60;99.90
48575;DHT22;34352;51.084;3.712;2023-05-16T10:45:19;27.70;99.90
48575;DHT22;34352;51.084;3.712;2023-05-16T10:47:58;27.40;99.90
48575;DHT22;34352;51.084;3.712;2023-05-16T10:50:41;27.10;99.90
48575;DHT22;34352;51.084;3.712;2023-05-16T10:53:29;27.30;99.90
48575;DHT22;34352;51.084;3.712;2023-05-16T10:56:10;28.20;99.90
48575;DHT22;34352;51.084;3.712;2023-05-16T11:04:12;28.20;99.90
48575;DHT22;34352;51.084;3.712;2023-05-16T11:06:45;27.20;99.90
48575;DHT22;34352;51.084;3.712;2023-05-16T11:09:24;26.60;99.90
48575;DHT22;34352;51.084;3.712;2023-05-16T11:11:58;26.30;99.90
48575;DHT22;34352;51.084;3.712;2023-05-16T11:14:38;26.50;99.90
48575;DHT22;34352;51.084;3.712;2023-05-16T11:17:21;26.60;99.90
48575;DHT22;34352;51.084;3.712;2023-05-16T11:19:54;26.40;99.90
48575;DHT22;34352;51.084;3.712;2023-05-16T11:22:29;25.10;99.90
48575;DHT22;34352;51.084;3.712;2023-05-16T11:25:02;24.20;99.90
48575;DHT22;34352;51.084;3.712;2023-05-16T11:27:44;24.70;99.90
48575;DHT22;34352;51.084;3.712;2023-05-16T11:30:12;25.20;99.90
48575;DHT22;34352;51.084;3.712;2023-05-16T11:32:45;25.80;99.90
48575;DHT22;34352;51.084;3.712;2023-05-16T11:35:13;26.40;99.90
48575;DHT22;34352;51.084;3.712;2023-05-16T11:37:49;27.10;99.90
48575;DHT22;34352;51.084;3.712;2023-05-16T11:40:15;27.50;99.90
48575;DHT22;34352;51.084;3.712;2023-05-16T11:42:47;27.60;99.90
48575;DHT22;34352;51.084;3.712;2023-05-16T11:45:17;27.40;99.90
48575;DHT22;34352;51.084;3.712;2023-05-16T11:48:01;27.90;99.90
48575;DHT22;34352;51.084;3.712;2023-05-16T11:50:33;28.10;99.90
48575;DHT22;34352;51.084;3.712;2023-05-16T11:53:29;28.10;1.00
48575;DHT22;34352;51.084;3.712;2023-05-16T11:56:17;28.20;1.00
48575;DHT22;34352;51.084;3.712;2023-05-16T11:58:44;28.10;1.00
48575;DHT22;34352;51.084;3.712;2023-05-16T12:04:31;27.50;1.00
48575;DHT22;34352;51.084;3.712;2023-05-16T12:06:59;27.20;99.90
48575;DHT22;34352;51.084;3.712;2023-05-16T12:09:25;27.80;1.00
48575;DHT22;34352;51.084;3.712;2023-05-16T12:11:51;26.30;1.00
48575;DHT22;34352;51.084;3.712;2023-05-16T12:14:18;26.20;1.00
48575;DHT22;34352;51.084;3.712;2023-05-16T12:16:47;26.80;1.00
48575;DHT22;34352;51.084;3.712;2023-05-16T12:19:22;27.40;1.00
48575;DHT22;34352;51.084;3.712;2023-05-16T12:21:53;27.70;1.00
48575;DHT22;34352;51.084;3.712;2023-05-16T12:24:31;28.50;1.00
48575;DHT22;34352;51.084;3.712;2023-05-16T12:27:28;28.40;1.00
48575;DHT22;34352;51.084;3.712;2023-05-16T12:30:08;27.70;1.00
48575;DHT22;34352;51.084;3.712;2023-05-16T12:32:37;26.70;1.00
48575;DHT22;34352;51.084;3.712;2023-05-16T12:35:03;26.40;1.00
48575;DHT22;34352;51.084;3.712;2023-05-16T12:37:37;26.90;1.00
48575;DHT22;34352;51.084;3.712;2023-05-16T12:40:05;26.70;1.00
48575;DHT22;34352;51.084;3.712;2023-05-16T12:42:32;26.50;1.00
48575;DHT22;34352;51.084;3.712;2023-05-16T12:48:12;25.60;1.00
48575;DHT22;34352;51.084;3.712;2023-05-16T12:50:39;25.30;1.00
48575;DHT22;34352;51.084;3.712;2023-05-16T12:56:37;26.00;1.00
48575;DHT22;34352;51.084;3.712;2023-05-16T12:59:09;26.10;1.00
48575;DHT22;34352;51.084;3.712;2023-05-16T13:01:38;26.50;1.00
48575;DHT22;34352;51.084;3.712;2023-05-16T13:04:13;26.50;1.00
48575;DHT22;34352;51.084;3.712;2023-05-16T13:06:47;26.00;1.00
48575;DHT22;34352;51.084;3.712;2023-05-16T13:09:13;26.50;1.00
48575;DHT22;34352;51.084;3.712;2023-05-16T13:11:44;26.60;1.00
48575;DHT22;34352;51.084;3.712;2023-05-16T13:14:29;26.90;1.00
48575;DHT22;34352;51.084;3.712;2023-05-16T13:16:57;27.00;1.00
48575;DHT22;34352;51.084;3.712;2023-05-16T13:19:24;27.10;1.00
48575;DHT22;34352;51.084;3.712;2023-05-16T13:21:51;27.30;1.00
48575;DHT22;34352;51.084;3.712;2023-05-16T13:24:20;27.10;1.00
48575;DHT22;34352;51.084;3.712;2023-05-16T13:26:59;26.90;1.00
48575;DHT22;34352;51.084;3.712;2023-05-16T13:29:27;26.20;1.00
48575;DHT22;34352;51.084;3.712;2023-05-16T13:32:06;25.40;1.00
48575;DHT22;34352;51.084;3.712;2023-05-16T13:34:34;25.50;1.00
48575;DHT22;34352;51.084;3.712;2023-05-16T13:37:00;26.20;1.00
48575;DHT22;34352;51.084;3.712;2023-05-16T13:39:26;26.10;1.00
48575;DHT22;34352;51.084;3.712;2023-05-16T13:41:52;26.30;1.00
48575;DHT22;34352;51.084;3.712;2023-05-16T13:44:18;26.20;1.00
48575;DHT22;34352;51.084;3.712;2023-05-16T13:46:44;25.70;1.00
48575;DHT22;34352;51.084;3.712;2023-05-16T13:49:21;25.10;1.00
48575;DHT22;34352;51.084;3.712;2023-05-16T13:51:49;24.90;1.00
48575;DHT22;34352;51.084;3.712;2023-05-16T13:54:19;24.90;1.00
48575;DHT22;34352;51.084;3.712;2023-05-16T13:56:59;24.70;1.00
48575;DHT22;34352;51.084;3.712;2023-05-16T13:59:26;24.50;1.00
48575;DHT22;34352;51.084;3.712;2023-05-16T14:01:52;24.00;1.00
48575;DHT22;34352;51.084;3.712;2023-05-16T14:04:30;23.80;1.00
48575;DHT22;34352;51.084;3.712;2023-05-16T14:06:56;23.80;1.00
48575;DHT22;34352;51.084;3.712;2023-05-16T14:09:25;23.50;1.00
48575;DHT22;34352;51.084;3.712;2023-05-16T14:12:06;23.70;1.00
48575;DHT22;34352;51.084;3.712;2023-05-16T14:14:33;23.50;1.00
48575;DHT22;34352;51.084;3.712;2023-05-16T14:17:03;23.20;1.00
48575;DHT22;34352;51.084;3.712;2023-05-16T14:19:35;22.50;1.00
48575;DHT22;34352;51.084;3.712;2023-05-16T14:22:09;22.10;1.00
48575;DHT22;34352;51.084;3.712;2023-05-16T14:24:43;21.70;1.00
48575;DHT22;34352;51.084;3.712;2023-05-16T14:27:10;21.50;1.00
48575;DHT22;34352;51.084;3.712;2023-05-16T14:29:39;21.40;99.90
48575;DHT22;34352;51.084;3.712;2023-05-16T14:32:26;21.20;99.90
48575;DHT22;34352;51.084;3.712;2023-05-16T14:34:54;21.20;99.90
48575;DHT22;34352;51.084;3.712;2023-05-16T14:37:21;21.20;99.90
48575;DHT22;34352;51.084;3.712;2023-05-16T14:39:47;21.10;99.90
48575;DHT22;34352;51.084;3.712;2023-05-16T14:42:16;20.80;99.90
48575;DHT22;34352;51.084;3.712;2023-05-16T14:44:47;20.80;99.90
48575;DHT22;34352;51.084;3.712;2023-05-16T14:47:12;20.60;99.90
48575;DHT22;34352;51.084;3.712;2023-05-16T14:49:39;20.60;99.90
48575;DHT22;34352;51.084;3.712;2023-05-16T14:52:09;20.60;99.90
48575;DHT22;34352;51.084;3.712;2023-05-16T14:54:41;20.60;99.90
48575;DHT22;34352;51.084;3.712;2023-05-16T14:57:09;20.60;99.90
48575;DHT22;34352;51.084;3.712;2023-05-16T14:59:47;20.70;99.90
48575;DHT22;34352;51.084;3.712;2023-05-16T15:02:19;20.40;99.90
48575;DHT22;34352;51.084;3.712;2023-05-16T15:05:04;20.30;99.90
48575;DHT22;34352;51.084;3.712;2023-05-16T15:07:35;20.10;99.90
48575;DHT22;34352;51.084;3.712;2023-05-16T15:10:07;20.10;99.90
48575;DHT22;34352;51.084;3.712;2023-05-16T15:12:46;19.90;99.90
48575;DHT22;34352;51.084;3.712;2023-05-16T15:15:18;19.90;99.90
48575;DHT22;34352;51.084;3.712;2023-05-16T15:17:58;19.80;99.90
48575;DHT22;34352;51.084;3.712;2023-05-16T15:20:33;19.80;99.90
48575;DHT22;34352;51.084;3.712;2023-05-16T15:23:10;19.60;99.90
48575;DHT22;34352;51.084;3.712;2023-05-16T15:25:44;19.60;99.90
48575;DHT22;34352;51.084;3.712;2023-05-16T15:28:16;19.70;99.90
48575;DHT22;34352;51.084;3.712;2023-05-16T15:30:45;19.50;99.90
48575;DHT22;34352;51.084;3.712;2023-05-16T15:33:11;19.30;99.90
48575;DHT22;34352;51.084;3.712;2023-05-16T15:35:37;19.00;99.90
48575;DHT22;34352;51.084;3.712;2023-05-16T15:38:24;19.00;99.90
48575;DHT22;34352;51.084;3.712;2023-05-16T15:44:17;18.90;99.90
48575;DHT22;34352;51.084;3.712;2023-05-16T15:46:54;18.90;99.90
48575;DHT22;34352;51.084;3.712;2023-05-16T15:49:24;19.00;99.90
48575;DHT22;34352;51.084;3.712;2023-05-16T15:52:04;19.00;99.90
48575;DHT22;34352;51.084;3.712;2023-05-16T15:54:39;19.10;99.90
48575;DHT22;34352;51.084;3.712;2023-05-16T15:57:09;19.00;99.90
48575;DHT22;34352;51.084;3.712;2023-05-16T15:59:36;19.00;99.90
48575;DHT22;34352;51.084;3.712;2023-05-16T16:02:03;18.90;99.90
48575;DHT22;34352;51.084;3.712;2023-05-16T16:04:33;18.80;99.90
48575;DHT22;34352;51.084;3.712;2023-05-16T16:06:58;18.90;99.90
48575;DHT22;34352;51.084;3.712;2023-05-16T16:09:25;18.90;99.90
48575;DHT22;34352;51.084;3.712;2023-05-16T16:11:51;18.80;99.90
48575;DHT22;34352;51.084;3.712;2023-05-16T16:14:22;18.70;99.90
48575;DHT22;34352;51.084;3.712;2023-05-16T16:16:53;18.50;99.90
48575;DHT22;34352;51.084;3.712;2023-05-16T16:19:20;18.40;99.90
48575;DHT22;34352;51.084;3.712;2023-05-16T16:21:46;18.40;99.90
48575;DHT22;34352;51.084;3.712;2023-05-16T16:27:35;18.30;99.90
48575;DHT22;34352;51.084;3.712;2023-05-16T16:36:26;18.30;99.90
48575;DHT22;34352;51.084;3.712;2023-05-16T16:38:53;18.20;99.90
48575;DHT22;34352;51.084;3.712;2023-05-16T16:41:35;18.10;99.90
48575;DHT22;34352;51.084;3.712;2023-05-16T16:44:01;18.00;99.90
48575;DHT22;34352;51.084;3.712;2023-05-16T16:46:41;17.90;99.90
48575;DHT22;34352;51.084;3.712;2023-05-16T16:49:15;17.80;99.90
48575;DHT22;34352;51.084;3.712;2023-05-16T16:51:41;17.90;99.90
48575;DHT22;34352;51.084;3.712;2023-05-16T16:54:21;18.00;99.90